sensor_id;sensor_type;location;lat;lon;timestamp;pressure;altitude;pressure_sealevel;temperature;humidity
27705;BME280;15109;50.992;6.918;2023-02-18T00:02:18;101753.78;;;11.60;100.00
27705;BME280;15109;50.992;6.918;2023-02-18T00:05:39;101747.97;;;11.63;100.00
27705;BME280;15109;50.992;6.918;2023-02-18T00:09:02;101756.34;;;11.62;100.00
27705;BME280;15109;50.992;6.918;2023-02-18T00:12:24;101748.47;;;11.59;100.00
27705;BME280;15109;50.992;6.918;2023-02-18T00:15:45;101739.41;;;11.58;100.00
27705;BME280;15109;50.992;6.918;2023-02-18T00:19:11;101750.50;;;11.57;100.00
27705;BME280;15109;50.992;6.918;2023-02-18T00:22:32;101735.78;;;11.58;100.00
27705;BME280;15109;50.992;6.918;2023-02-18T00:26:18;101745.38;;;11.62;100.00
27705;BME280;15109;50.992;6.918;2023-02-18T00:29:40;101737.88;;;11.64;100.00
27705;BME280;15109;50.992;6.918;2023-02-18T00:33:01;101736.16;;;11.63;100.00
27705;BME280;15109;50.992;6.918;2023-02-18T00:36:23;101724.34;;;11.62;100.00
27705;BME280;15109;50.992;6.918;2023-02-18T00:39:49;101703.63;;;11.60;100.00
27705;BME280;15109;50.992;6.918;2023-02-18T00:43:10;101709.97;;;11.60;100.00
27705;BME280;15109;50.992;6.918;2023-02-18T00:46:32;101701.75;;;11.60;100.00
27705;BME280;15109;50.992;6.918;2023-02-18T00:49:55;101701.91;;;11.59;100.00
27705;BME280;15109;50.992;6.918;2023-02-18T00:53:16;101699.00;;;11.60;100.00
27705;BME280;15109;50.992;6.918;2023-02-18T00:56:37;101707.38;;;11.59;100.00
27705;BME280;15109;50.992;6.918;2023-02-18T00:59:58;101704.47;;;11.60;100.00
27705;BME280;15109;50.992;6.918;2023-02-18T01:03:19;101697.09;;;11.61;100.00
27705;BME280;15109;50.992;6.918;2023-02-18T01:06:43;101689.56;;;11.63;100.00
27705;BME280;15109;50.992;6.918;2023-02-18T01:10:04;101697.78;;;11.63;100.00
27705;BME280;15109;50.992;6.918;2023-02-18T01:13:26;101691.47;;;11.62;100.00
27705;BME280;15109;50.992;6.918;2023-02-18T01:16:48;101678.25;;;11.58;100.00
27705;BME280;15109;50.992;6.918;2023-02-18T01:20:10;101683.06;;;11.56;100.00
27705;BME280;15109;50.992;6.918;2023-02-18T01:23:31;101682.06;;;11.65;100.00
27705;BME280;15109;50.992;6.918;2023-02-18T01:26:52;101681.19;;;11.64;100.00
27705;BME280;15109;50.992;6.918;2023-02-18T01:30:15;101676.03;;;11.61;100.00
27705;BME280;15109;50.992;6.918;2023-02-18T01:33:39;101664.41;;;11.59;100.00
27705;BME280;15109;50.992;6.918;2023-02-18T01:37:01;101664.72;;;11.56;100.00
27705;BME280;15109;50.992;6.918;2023-02-18T01:40:24;101673.13;;;11.55;100.00
27705;BME280;15109;50.992;6.918;2023-02-18T01:43:45;101668.31;;;11.57;100.00
27705;BME280;15109;50.992;6.918;2023-02-18T01:47:06;101670.75;;;11.60;100.00
27705;BME280;15109;50.992;6.918;2023-02-18T01:50:27;101670.25;;;11.64;100.00
27705;BME280;15109;50.992;6.918;2023-02-18T01:54:10;101658.59;;;11.62;100.00
27705;BME280;15109;50.992;6.918;2023-02-18T01:57:35;101644.38;;;11.59;100.00
27705;BME280;15109;50.992;6.918;2023-02-18T02:00:58;101637.88;;;11.52;100.00
27705;BME280;15109;50.992;6.918;2023-02-18T02:04:20;101650.38;;;11.54;100.00
27705;BME280;15109;50.992;6.918;2023-02-18T02:07:42;101641.13;;;11.55;100.00
27705;BME280;15109;50.992;6.918;2023-02-18T02:15:42;101624.50;;;11.57;100.00
27705;BME280;15109;50.992;6.918;2023-02-18T02:19:08;101621.75;;;11.57;100.00
27705;BME280;15109;50.992;6.918;2023-02-18T02:37:51;101611.84;;;11.56;100.00
27705;BME280;15109;50.992;6.918;2023-02-18T02:41:26;101607.22;;;11.56;100.00
27705;BME280;15109;50.992;6.918;2023-02-18T02:45:01;101603.97;;;11.53;100.00
27705;BME280;15109;50.992;6.918;2023-02-18T02:53:10;101586.88;;;11.51;100.00
27705;BME280;15109;50.992;6.918;2023-02-18T02:56:16;101573.31;;;11.57;100.00
27705;BME280;15109;50.992;6.918;2023-02-18T02:59:40;101574.03;;;11.59;100.00
27705;BME280;15109;50.992;6.918;2023-02-18T03:03:09;101573.16;;;11.59;100.00
27705;BME280;15109;50.992;6.918;2023-02-18T03:07:01;101568.88;;;11.56;100.00
27705;BME280;15109;50.992;6.918;2023-02-18T03:10:47;101565.97;;;11.58;100.00
27705;BME280;15109;50.992;6.918;2023-02-18T03:17:45;101557.59;;;11.59;100.00
27705;BME280;15109;50.992;6.918;2023-02-18T03:21:38;101558.25;;;11.61;100.00
27705;BME280;15109;50.992;6.918;2023-02-18T03:24:58;101559.63;;;11.57;100.00
27705;BME280;15109;50.992;6.918;2023-02-18T03:28:21;101554.31;;;11.64;100.00
27705;BME280;15109;50.992;6.918;2023-02-18T03:31:46;101551.59;;;11.64;100.00
27705;BME280;15109;50.992;6.918;2023-02-18T03:35:12;101554.31;;;11.64;100.00
27705;BME280;15109;50.992;6.918;2023-02-18T03:38:37;101559.09;;;11.62;100.00
27705;BME280;15109;50.992;6.918;2023-02-18T03:42:00;101556.38;;;11.62;100.00
27705;BME280;15109;50.992;6.918;2023-02-18T03:45:21;101559.09;;;11.62;100.00
27705;BME280;15109;50.992;6.918;2023-02-18T03:48:42;101553.13;;;11.58;100.00
27705;BME280;15109;50.992;6.918;2023-02-18T03:52:03;101553.13;;;11.58;100.00
27705;BME280;15109;50.992;6.918;2023-02-18T03:55:24;101554.84;;;11.51;100.00
27705;BME280;15109;50.992;6.918;2023-02-18T03:58:45;101545.44;;;11.46;100.00
27705;BME280;15109;50.992;6.918;2023-02-18T04:02:07;101533.97;;;11.42;100.00
27705;BME280;15109;50.992;6.918;2023-02-18T04:05:28;101530.91;;;11.37;100.00
27705;BME280;15109;50.992;6.918;2023-02-18T04:08:49;101529.69;;;11.31;100.00
27705;BME280;15109;50.992;6.918;2023-02-18T04:12:10;101531.06;;;11.27;100.00
27705;BME280;15109;50.992;6.918;2023-02-18T04:15:31;101522.19;;;11.25;100.00
27705;BME280;15109;50.992;6.918;2023-02-18T04:18:54;101515.50;;;11.20;100.00
27705;BME280;15109;50.992;6.918;2023-02-18T04:22:15;101508.50;;;11.17;100.00
27705;BME280;15109;50.992;6.918;2023-02-18T04:25:36;101507.28;;;11.20;100.00
27705;BME280;15109;50.992;6.918;2023-02-18T04:28:57;101500.78;;;11.21;100.00
27705;BME280;15109;50.992;6.918;2023-02-18T04:32:18;101504.91;;;11.17;100.00
27705;BME280;15109;50.992;6.918;2023-02-18T04:35:40;101504.38;;;11.13;100.00
27705;BME280;15109;50.992;6.918;2023-02-18T04:39:01;101504.72;;;11.02;100.00
27705;BME280;15109;50.992;6.918;2023-02-18T04:42:24;101495.31;;;11.05;100.00
27705;BME280;15109;50.992;6.918;2023-02-18T04:45:45;101498.03;;;11.05;100.00
27705;BME280;15109;50.992;6.918;2023-02-18T04:49:06;101481.97;;;11.02;100.00
27705;BME280;15109;50.992;6.918;2023-02-18T04:52:27;101487.78;;;10.99;100.00
27705;BME280;15109;50.992;6.918;2023-02-18T04:55:52;101481.47;;;10.98;100.00
27705;BME280;15109;50.992;6.918;2023-02-18T04:59:14;101486.06;;;10.98;100.00
27705;BME280;15109;50.992;6.918;2023-02-18T05:02:35;101473.41;;;10.97;100.00
27705;BME280;15109;50.992;6.918;2023-02-18T05:05:57;101472.91;;;10.93;100.00
27705;BME280;15109;50.992;6.918;2023-02-18T05:09:18;101457.19;;;10.87;100.00
27705;BME280;15109;50.992;6.918;2023-02-18T05:12:39;101464.84;;;10.83;100.00
27705;BME280;15109;50.992;6.918;2023-02-18T05:16:00;101465.91;;;10.82;100.00
27705;BME280;15109;50.992;6.918;2023-02-18T05:19:21;101460.94;;;10.86;100.00
27705;BME280;15109;50.992;6.918;2023-02-18T05:22:42;101458.38;;;10.84;100.00
27705;BME280;15109;50.992;6.918;2023-02-18T05:26:03;101449.28;;;10.84;100.00
27705;BME280;15109;50.992;6.918;2023-02-18T05:29:24;101453.25;;;10.81;100.00
27705;BME280;15109;50.992;6.918;2023-02-18T05:32:45;101451.69;;;10.79;100.00
27705;BME280;15109;50.992;6.918;2023-02-18T05:36:07;101448.13;;;10.78;100.00
27705;BME280;15109;50.992;6.918;2023-02-18T05:39:28;101448.13;;;10.78;100.00
27705;BME280;15109;50.992;6.918;2023-02-18T05:42:49;101442.09;;;10.75;100.00
27705;BME280;15109;50.992;6.918;2023-02-18T05:46:10;101435.28;;;10.71;100.00
27705;BME280;15109;50.992;6.918;2023-02-18T05:49:32;101432.88;;;10.68;100.00
27705;BME280;15109;50.992;6.918;2023-02-18T05:52:53;101420.75;;;10.70;100.00
27705;BME280;15109;50.992;6.918;2023-02-18T05:56:17;101417.84;;;10.72;100.00
27705;BME280;15109;50.992;6.918;2023-02-18T05:59:38;101415.09;;;10.72;100.00
27705;BME280;15109;50.992;6.918;2023-02-18T06:02:59;101407.41;;;10.67;100.00
27705;BME280;15109;50.992;6.918;2023-02-18T06:06:20;101393.91;;;10.66;100.00
27705;BME280;15109;50.992;6.918;2023-02-18T06:09:41;101394.75;;;10.66;100.00
27705;BME280;15109;50.992;6.918;2023-02-18T06:13:02;101389.13;;;10.68;100.00
27705;BME280;15109;50.992;6.918;2023-02-18T06:16:24;101393.38;;;10.70;100.00
27705;BME280;15109;50.992;6.918;2023-02-18T06:19:45;101387.25;;;10.68;100.00
27705;BME280;15109;50.992;6.918;2023-02-18T06:23:06;101395.63;;;10.67;100.00
27705;BME280;15109;50.992;6.918;2023-02-18T06:26:27;101395.97;;;10.72;100.00
27705;BME280;15109;50.992;6.918;2023-02-18T06:29:48;101384.34;;;10.70;100.00
27705;BME280;15109;50.992;6.918;2023-02-18T06:33:09;101382.63;;;10.69;100.00
27705;BME280;15109;50.992;6.918;2023-02-18T06:36:30;101387.09;;;10.70;100.00
27705;BME280;15109;50.992;6.918;2023-02-18T06:39:51;101392.56;;;10.70;100.00
27705;BME280;15109;50.992;6.918;2023-02-18T06:43:15;101393.56;;;10.69;100.00
27705;BME280;15109;50.992;6.918;2023-02-18T06:46:36;101398.53;;;10.73;100.00
27705;BME280;15109;50.992;6.918;2023-02-18T06:50:00;101388.63;;;10.72;100.00
27705;BME280;15109;50.992;6.918;2023-02-18T06:53:21;101388.97;;;10.77;100.00
27705;BME280;15109;50.992;6.918;2023-02-18T06:56:42;101384.84;;;10.81;100.00
27705;BME280;15109;50.992;6.918;2023-02-18T07:00:04;101398.34;;;10.83;100.00
27705;BME280;15109;50.992;6.918;2023-02-18T07:03:25;101388.59;;;10.88;100.00
27705;BME280;15109;50.992;6.918;2023-02-18T07:06:46;101388.44;;;10.90;100.00
27705;BME280;15109;50.992;6.918;2023-02-18T07:10:09;101392.88;;;10.91;100.00
27705;BME280;15109;50.992;6.918;2023-02-18T07:13:39;101390.31;;;10.98;100.00
27705;BME280;15109;50.992;6.918;2023-02-18T07:17:00;101402.81;;;11.00;100.00
27705;BME280;15109;50.992;6.918;2023-02-18T07:20:21;101407.41;;;11.00;100.00
27705;BME280;15109;50.992;6.918;2023-02-18T07:23:42;101421.09;;;11.00;100.00
27705;BME280;15109;50.992;6.918;2023-02-18T07:27:06;101437.66;;;11.06;100.00
27705;BME280;15109;50.992;6.918;2023-02-18T07:30:29;101430.16;;;11.08;100.00
27705;BME280;15109;50.992;6.918;2023-02-18T07:33:50;101422.25;;;11.13;100.00
27705;BME280;15109;50.992;6.918;2023-02-18T07:37:11;101417.63;;;11.22;100.00
27705;BME280;15109;50.992;6.918;2023-02-18T07:40:32;101415.94;;;11.21;100.00
27705;BME280;15109;50.992;6.918;2023-02-18T07:43:53;101412.47;;;11.27;100.00
27705;BME280;15109;50.992;6.918;2023-02-18T07:47:15;101413.19;;;11.29;100.00
27705;BME280;15109;50.992;6.918;2023-02-18T07:50:40;101392.63;;;11.33;100.00
27705;BME280;15109;50.992;6.918;2023-02-18T07:54:01;101409.72;;;11.35;100.00
27705;BME280;15109;50.992;6.918;2023-02-18T07:57:22;101428.06;;;11.26;100.00
27705;BME280;15109;50.992;6.918;2023-02-18T08:00:44;101442.44;;;11.20;100.00
27705;BME280;15109;50.992;6.918;2023-02-18T08:04:05;101446.38;;;11.18;100.00
27705;BME280;15109;50.992;6.918;2023-02-18T08:07:26;101463.66;;;11.10;100.00
27705;BME280;15109;50.992;6.918;2023-02-18T08:10:48;101472.59;;;11.04;100.00
27705;BME280;15109;50.992;6.918;2023-02-18T08:14:09;101482.13;;;10.92;100.00
27705;BME280;15109;50.992;6.918;2023-02-18T08:17:30;101488.47;;;10.92;100.00
27705;BME280;15109;50.992;6.918;2023-02-18T08:20:52;101486.59;;;10.93;100.00
27705;BME280;15109;50.992;6.918;2023-02-18T08:24:13;101476.50;;;10.93;100.00
27705;BME280;15109;50.992;6.918;2023-02-18T08:27:35;101485.56;;;10.94;100.00
27705;BME280;15109;50.992;6.918;2023-02-18T08:30:56;101491.91;;;10.86;100.00
27705;BME280;15109;50.992;6.918;2023-02-18T08:34:17;101490.84;;;10.87;100.00
27705;BME280;15109;50.992;6.918;2023-02-18T08:37:38;101497.53;;;10.85;100.00
27705;BME280;15109;50.992;6.918;2023-02-18T08:41:03;101505.88;;;10.83;100.00
27705;BME280;15109;50.992;6.918;2023-02-18T08:44:25;101500.41;;;10.83;100.00
27705;BME280;15109;50.992;6.918;2023-02-18T08:47:47;101499.56;;;10.83;100.00
27705;BME280;15109;50.992;6.918;2023-02-18T08:51:19;101494.78;;;10.77;100.00
27705;BME280;15109;50.992;6.918;2023-02-18T08:54:41;101495.78;;;10.68;100.00
27705;BME280;15109;50.992;6.918;2023-02-18T08:58:03;101501.09;;;10.69;100.00
27705;BME280;15109;50.992;6.918;2023-02-18T09:01:24;101495.97;;;10.74;100.00
27705;BME280;15109;50.992;6.918;2023-02-18T09:04:45;101506.09;;;10.82;100.00
27705;BME280;15109;50.992;6.918;2023-02-18T09:08:06;101493.94;;;10.84;100.00
27705;BME280;15109;50.992;6.918;2023-02-18T09:11:28;101497.38;;;10.95;100.00
27705;BME280;15109;50.992;6.918;2023-02-18T09:14:49;101482.84;;;10.94;100.00
27705;BME280;15109;50.992;6.918;2023-02-18T09:18:10;101478.72;;;10.90;100.00
27705;BME280;15109;50.992;6.918;2023-02-18T09:21:31;101471.38;;;10.99;100.00
27705;BME280;15109;50.992;6.918;2023-02-18T09:24:52;101466.25;;;11.04;100.00
27705;BME280;15109;50.992;6.918;2023-02-18T09:28:13;101468.78;;;10.97;100.00
27705;BME280;15109;50.992;6.918;2023-02-18T09:31:34;101463.66;;;11.02;100.00
27705;BME280;15109;50.992;6.918;2023-02-18T09:34:55;101469.34;;;11.09;100.00
27705;BME280;15109;50.992;6.918;2023-02-18T09:38:17;101479.22;;;11.18;100.00
27705;BME280;15109;50.992;6.918;2023-02-18T09:41:42;101462.28;;;11.22;100.00
27705;BME280;15109;50.992;6.918;2023-02-18T09:45:06;101464.16;;;11.14;100.00
27705;BME280;15109;50.992;6.918;2023-02-18T09:48:33;101452.19;;;11.15;100.00
27705;BME280;15109;50.992;6.918;2023-02-18T09:52:05;101440.38;;;11.22;100.00
27705;BME280;15109;50.992;6.918;2023-02-18T09:55:30;101443.31;;;11.21;100.00
27705;BME280;15109;50.992;6.918;2023-02-18T09:58:51;101436.28;;;11.10;100.00
27705;BME280;15109;50.992;6.918;2023-02-18T10:02:13;101438.88;;;11.12;100.00
27705;BME280;15109;50.992;6.918;2023-02-18T10:05:40;101430.47;;;11.13;100.00
27705;BME280;15109;50.992;6.918;2023-02-18T10:09:15;101430.47;;;11.13;100.00
27705;BME280;15109;50.992;6.918;2023-02-18T10:12:38;101431.16;;;11.15;100.00
27705;BME280;15109;50.992;6.918;2023-02-18T10:16:01;101430.47;;;11.13;100.00
27705;BME280;15109;50.992;6.918;2023-02-18T10:19:35;101414.75;;;11.15;100.00
27705;BME280;15109;50.992;6.918;2023-02-18T10:22:59;101419.69;;;11.20;100.00
27705;BME280;15109;50.992;6.918;2023-02-18T10:26:21;101426.03;;;11.20;100.00
27705;BME280;15109;50.992;6.918;2023-02-18T10:29:42;101414.69;;;11.31;100.00
27705;BME280;15109;50.992;6.918;2023-02-18T10:44:14;101422.59;;;11.18;100.00
27705;BME280;15109;50.992;6.918;2023-02-18T10:47:49;101430.81;;;11.18;100.00
27705;BME280;15109;50.992;6.918;2023-02-18T10:51:19;101432.19;;;11.14;100.00
27705;BME280;15109;50.992;6.918;2023-02-18T10:55:15;101429.81;;;11.11;100.00
27705;BME280;15109;50.992;6.918;2023-02-18T10:58:33;101431.53;;;11.12;100.00
27705;BME280;15109;50.992;6.918;2023-02-18T11:02:02;101427.41;;;11.08;100.00
27705;BME280;15109;50.992;6.918;2023-02-18T11:05:26;101435.63;;;11.08;100.00
27705;BME280;15109;50.992;6.918;2023-02-18T11:08:48;101439.53;;;11.06;100.00
27705;BME280;15109;50.992;6.918;2023-02-18T11:12:29;101442.63;;;11.03;100.00
27705;BME280;15109;50.992;6.918;2023-02-18T11:16:00;101444.00;;;10.99;100.00
27705;BME280;15109;50.992;6.918;2023-02-18T11:19:31;101448.28;;;11.01;100.00
27705;BME280;15109;50.992;6.918;2023-02-18T11:26:31;101451.53;;;11.13;100.00
27705;BME280;15109;50.992;6.918;2023-02-18T11:29:59;101453.59;;;11.03;100.00
27705;BME280;15109;50.992;6.918;2023-02-18T11:33:55;101447.94;;;11.04;100.00
27705;BME280;15109;50.992;6.918;2023-02-18T11:37:19;101454.25;;;10.97;100.00
27705;BME280;15109;50.992;6.918;2023-02-18T11:40:41;101449.66;;;10.97;100.00
27705;BME280;15109;50.992;6.918;2023-02-18T11:44:05;101449.81;;;10.87;100.00
27705;BME280;15109;50.992;6.918;2023-02-18T11:47:33;101444.53;;;10.78;100.00
27705;BME280;15109;50.992;6.918;2023-02-18T11:51:00;101447.78;;;10.81;100.00
27705;BME280;15109;50.992;6.918;2023-02-18T11:54:29;101439.22;;;10.84;100.00
27705;BME280;15109;50.992;6.918;2023-02-18T12:01:27;101452.53;;;10.79;100.00
27705;BME280;15109;50.992;6.918;2023-02-18T12:05:01;101446.22;;;10.79;100.00
27705;BME280;15109;50.992;6.918;2023-02-18T12:08:26;101446.56;;;10.84;100.00
27705;BME280;15109;50.992;6.918;2023-02-18T12:12:05;101443.66;;;10.77;100.00
27705;BME280;15109;50.992;6.918;2023-02-18T12:15:47;101445.03;;;10.81;100.00
27705;BME280;15109;50.992;6.918;2023-02-18T12:27:19;101438.34;;;10.84;100.00
27705;BME280;15109;50.992;6.918;2023-02-18T12:34:50;101440.44;;;10.82;100.00
27705;BME280;15109;50.992;6.918;2023-02-18T12:57:00;101433.41;;;10.96;100.00
27705;BME280;15109;50.992;6.918;2023-02-18T13:00:37;101432.38;;;10.88;100.00
27705;BME280;15109;50.992;6.918;2023-02-18T13:15:19;101433.72;;;11.01;100.00
27705;BME280;15109;50.992;6.918;2023-02-18T13:18:51;101435.44;;;10.93;100.00
27705;BME280;15109;50.992;6.918;2023-02-18T13:22:19;101441.78;;;10.94;100.00
27705;BME280;15109;50.992;6.918;2023-02-18T13:25:42;101428.09;;;10.94;100.00
27705;BME280;15109;50.992;6.918;2023-02-18T13:29:44;101439.91;;;10.95;100.00
27705;BME280;15109;50.992;6.918;2023-02-18T13:33:16;101439.72;;;10.96;100.00
27705;BME280;15109;50.992;6.918;2023-02-18T13:40:26;101427.59;;;11.07;100.00
27705;BME280;15109;50.992;6.918;2023-02-18T13:43:50;101432.91;;;11.08;100.00
27705;BME280;15109;50.992;6.918;2023-02-18T13:47:34;101426.53;;;11.16;100.00
27705;BME280;15109;50.992;6.918;2023-02-18T13:51:03;101422.78;;;11.17;100.00
27705;BME280;15109;50.992;6.918;2023-02-18T13:54:31;101433.41;;;11.12;100.00
27705;BME280;15109;50.992;6.918;2023-02-18T13:58:01;101427.22;;;11.18;100.00
27705;BME280;15109;50.992;6.918;2023-02-18T14:01:37;101430.16;;;11.08;100.00
27705;BME280;15109;50.992;6.918;2023-02-18T14:08:38;101426.38;;;11.09;100.00
27705;BME280;15109;50.992;6.918;2023-02-18T14:12:16;101426.56;;;11.08;100.00
27705;BME280;15109;50.992;6.918;2023-02-18T14:15:58;101428.44;;;11.07;100.00
27705;BME280;15109;50.992;6.918;2023-02-18T14:19:28;101428.78;;;11.04;100.00
27705;BME280;15109;50.992;6.918;2023-02-18T14:22:51;101430.47;;;11.05;100.00
27705;BME280;15109;50.992;6.918;2023-02-18T14:29:34;101422.78;;;11.01;100.00
27705;BME280;15109;50.992;6.918;2023-02-18T14:32:59;101433.06;;;11.07;100.00
27705;BME280;15109;50.992;6.918;2023-02-18T14:40:09;101422.09;;;11.07;100.00
27705;BME280;15109;50.992;6.918;2023-02-18T14:50:52;101415.44;;;11.17;100.00
27705;BME280;15109;50.992;6.918;2023-02-18T14:54:19;101422.09;;;11.15;100.00
27705;BME280;15109;50.992;6.918;2023-02-18T14:57:49;101414.22;;;11.20;100.00
27705;BME280;15109;50.992;6.918;2023-02-18T15:01:32;101416.97;;;11.20;100.00
27705;BME280;15109;50.992;6.918;2023-02-18T15:05:15;101419.00;;;11.10;100.00
27705;BME280;15109;50.992;6.918;2023-02-18T15:08:37;101424.31;;;11.19;100.00
27705;BME280;15109;50.992;6.918;2023-02-18T15:12:02;101416.78;;;11.13;100.00
27705;BME280;15109;50.992;6.918;2023-02-18T15:15:27;101417.47;;;11.23;100.00
27705;BME280;15109;50.992;6.918;2023-02-18T15:18:54;101408.56;;;11.13;100.00
27705;BME280;15109;50.992;6.918;2023-02-18T15:22:19;101397.09;;;11.18;100.00
27705;BME280;15109;50.992;6.918;2023-02-18T15:25:44;101410.28;;;11.22;100.00
27705;BME280;15109;50.992;6.918;2023-02-18T15:29:14;101407.53;;;11.22;100.00
27705;BME280;15109;50.992;6.918;2023-02-18T15:32:38;101402.06;;;11.22;100.00
27705;BME280;15109;50.992;6.918;2023-02-18T15:36:04;101402.22;;;11.29;100.00
27705;BME280;15109;50.992;6.918;2023-02-18T15:39:26;101414.03;;;11.29;100.00
27705;BME280;15109;50.992;6.918;2023-02-18T15:42:50;101405.31;;;11.26;100.00
27705;BME280;15109;50.992;6.918;2023-02-18T15:46:13;101407.53;;;11.22;100.00
27705;BME280;15109;50.992;6.918;2023-02-18T15:49:38;101403.59;;;11.25;100.00
27705;BME280;15109;50.992;6.918;2023-02-18T15:53:06;101409.59;;;11.20;100.00
27705;BME280;15109;50.992;6.918;2023-02-18T15:56:32;101408.91;;;11.18;100.00
27705;BME280;15109;50.992;6.918;2023-02-18T15:59:58;101415.44;;;11.17;100.00
27705;BME280;15109;50.992;6.918;2023-02-18T16:03:28;101411.84;;;11.17;100.00
27705;BME280;15109;50.992;6.918;2023-02-18T16:06:52;101413.72;;;11.16;100.00
27705;BME280;15109;50.992;6.918;2023-02-18T16:13:53;101425.84;;;11.14;100.00
27705;BME280;15109;50.992;6.918;2023-02-18T16:17:20;101417.31;;;11.17;100.00
27705;BME280;15109;50.992;6.918;2023-02-18T16:20:41;101418.84;;;11.19;100.00
27705;BME280;15109;50.992;6.918;2023-02-18T16:24:26;101422.78;;;11.17;100.00
27705;BME280;15109;50.992;6.918;2023-02-18T16:27:52;101423.66;;;11.17;100.00
27705;BME280;15109;50.992;6.918;2023-02-18T16:31:14;101430.81;;;11.18;100.00
27705;BME280;15109;50.992;6.918;2023-02-18T16:34:36;101423.66;;;11.17;100.00
27705;BME280;15109;50.992;6.918;2023-02-18T16:37:58;101429.78;;;11.19;100.00
27705;BME280;15109;50.992;6.918;2023-02-18T16:41:22;101417.63;;;11.22;100.00
27705;BME280;15109;50.992;6.918;2023-02-18T16:44:43;101417.28;;;11.25;100.00
27705;BME280;15109;50.992;6.918;2023-02-18T16:48:04;101420.88;;;11.25;100.00
27705;BME280;15109;50.992;6.918;2023-02-18T16:51:31;101422.94;;;11.23;100.00
27705;BME280;15109;50.992;6.918;2023-02-18T16:54:55;101413.53;;;11.26;100.00
27705;BME280;15109;50.992;6.918;2023-02-18T16:58:16;101408.38;;;11.23;100.00
27705;BME280;15109;50.992;6.918;2023-02-18T17:01:40;101426.88;;;11.21;100.00
27705;BME280;15109;50.992;6.918;2023-02-18T17:05:04;101430.47;;;11.21;100.00
27705;BME280;15109;50.992;6.918;2023-02-18T17:08:26;101424.66;;;11.24;100.00
27705;BME280;15109;50.992;6.918;2023-02-18T17:11:49;101421.75;;;11.26;100.00
27705;BME280;15109;50.992;6.918;2023-02-18T17:15:30;101429.09;;;11.25;100.00
27705;BME280;15109;50.992;6.918;2023-02-18T17:18:51;101420.88;;;11.25;100.00
27705;BME280;15109;50.992;6.918;2023-02-18T17:22:13;101429.09;;;11.25;100.00
27705;BME280;15109;50.992;6.918;2023-02-18T17:25:37;101438.84;;;11.28;100.00
27705;BME280;15109;50.992;6.918;2023-02-18T17:28:59;101429.78;;;11.27;100.00
27705;BME280;15109;50.992;6.918;2023-02-18T17:32:20;101434.22;;;11.28;100.00
27705;BME280;15109;50.992;6.918;2023-02-18T17:35:41;101442.78;;;11.25;100.00
27705;BME280;15109;50.992;6.918;2023-02-18T17:39:08;101448.44;;;11.24;100.00
27705;BME280;15109;50.992;6.918;2023-02-18T17:42:31;101430.78;;;11.26;100.00
27705;BME280;15109;50.992;6.918;2023-02-18T17:45:56;101441.06;;;11.24;100.00
27705;BME280;15109;50.992;6.918;2023-02-18T17:49:20;101435.44;;;11.26;100.00
27705;BME280;15109;50.992;6.918;2023-02-18T17:52:42;101435.44;;;11.26;100.00
27705;BME280;15109;50.992;6.918;2023-02-18T17:56:03;101431.31;;;11.22;100.00
27705;BME280;15109;50.992;6.918;2023-02-18T17:59:24;101431.66;;;11.19;100.00
27705;BME280;15109;50.992;6.918;2023-02-18T18:02:45;101423.66;;;11.17;100.00
27705;BME280;15109;50.992;6.918;2023-02-18T18:06:15;101429.63;;;11.13;100.00
27705;BME280;15109;50.992;6.918;2023-02-18T18:09:36;101430.81;;;11.10;100.00
27705;BME280;15109;50.992;6.918;2023-02-18T18:12:59;101427.06;;;11.11;100.00
27705;BME280;15109;50.992;6.918;2023-02-18T18:16:20;101432.72;;;11.02;100.00
27705;BME280;15109;50.992;6.918;2023-02-18T18:19:41;101434.25;;;10.96;100.00
27705;BME280;15109;50.992;6.918;2023-02-18T18:23:05;101430.84;;;10.94;100.00
27705;BME280;15109;50.992;6.918;2023-02-18T18:26:30;101433.94;;;10.91;100.00
27705;BME280;15109;50.992;6.918;2023-02-18T18:29:51;101433.41;;;10.96;100.00
27705;BME280;15109;50.992;6.918;2023-02-18T18:36:36;101441.28;;;10.99;100.00
27705;BME280;15109;50.992;6.918;2023-02-18T18:39:57;101435.97;;;10.97;100.00
27705;BME280;15109;50.992;6.918;2023-02-18T18:43:23;101428.63;;;10.98;100.00
27705;BME280;15109;50.992;6.918;2023-02-18T18:46:44;101424.69;;;11.00;100.00
27705;BME280;15109;50.992;6.918;2023-02-18T18:50:05;101417.50;;;10.99;100.00
27705;BME280;15109;50.992;6.918;2023-02-18T18:53:29;101417.31;;;11.01;100.00
27705;BME280;15109;50.992;6.918;2023-02-18T18:56:51;101417.66;;;11.06;100.00
27705;BME280;15109;50.992;6.918;2023-02-18T19:00:14;101419.38;;;11.07;100.00
27705;BME280;15109;50.992;6.918;2023-02-18T19:03:35;101413.91;;;11.07;100.00
27705;BME280;15109;50.992;6.918;2023-02-18T19:06:58;101409.13;;;11.09;100.00
27705;BME280;15109;50.992;6.918;2023-02-18T19:10:19;101412.53;;;11.11;100.00
27705;BME280;15109;50.992;6.918;2023-02-18T19:13:41;101414.03;;;11.13;100.00
27705;BME280;15109;50.992;6.918;2023-02-18T19:17:02;101422.59;;;11.10;100.00
27705;BME280;15109;50.992;6.918;2023-02-18T19:20:31;101419.88;;;11.10;100.00
27705;BME280;15109;50.992;6.918;2023-02-18T19:23:55;101420.22;;;11.07;100.00
27705;BME280;15109;50.992;6.918;2023-02-18T19:27:16;101420.38;;;11.14;100.00
27705;BME280;15109;50.992;6.918;2023-02-18T19:30:38;101410.81;;;11.10;100.00
27705;BME280;15109;50.992;6.918;2023-02-18T19:34:01;101394.38;;;11.10;100.00